createdAt,value
2019-01-12T00:01:13.419Z,3.37
2019-01-12T00:03:41.419Z,3.37
2019-01-12T00:06:10.809Z,3.37
2019-01-12T00:08:38.886Z,3.36
2019-01-12T00:11:06.890Z,3.36
2019-01-12T00:13:34.882Z,3.34
2019-01-12T00:16:03.958Z,3.35
2019-01-12T00:18:32.011Z,3.36
2019-01-12T00:21:00.016Z,3.36
2019-01-12T00:23:28.263Z,3.35
2019-01-12T00:25:56.255Z,3.36
2019-01-12T00:28:24.289Z,3.34
2019-01-12T00:30:52.289Z,3.34
2019-01-12T00:33:20.322Z,3.34
2019-01-12T00:35:49.151Z,3.34
2019-01-12T00:38:17.180Z,3.32
2019-01-12T00:40:45.192Z,3.36
2019-01-12T00:43:13.226Z,3.35
2019-01-12T00:45:41.415Z,3.34
2019-01-12T00:48:09.444Z,3.34
2019-01-12T00:50:37.447Z,3.33
2019-01-12T00:53:05.422Z,3.36
2019-01-12T00:55:33.420Z,3.34
2019-01-12T00:58:01.434Z,3.37
2019-01-12T01:00:30.258Z,3.39
2019-01-12T01:02:58.296Z,3.39
2019-01-12T01:05:26.285Z,3.39
2019-01-12T01:07:54.310Z,3.39
2019-01-12T01:10:23.431Z,3.40
2019-01-12T01:12:51.428Z,3.42
2019-01-12T01:15:19.461Z,3.41
2019-01-12T01:17:47.494Z,3.40
2019-01-12T01:20:16.335Z,3.43
2019-01-12T01:22:44.329Z,3.44
2019-01-12T01:25:12.707Z,3.44
2019-01-12T01:27:40.707Z,3.46
2019-01-12T01:30:17.151Z,3.46
2019-01-12T01:32:46.347Z,3.48
2019-01-12T01:35:14.402Z,3.51
2019-01-12T01:37:42.395Z,3.52
2019-01-12T01:40:13.773Z,3.53
2019-01-12T01:42:41.756Z,3.53
2019-01-12T01:45:11.486Z,3.53
2019-01-12T01:47:39.456Z,3.54
2019-01-12T01:50:08.949Z,3.54
2019-01-12T01:52:36.922Z,3.55
2019-01-12T01:55:05.347Z,3.55
2019-01-12T01:57:33.352Z,3.58
2019-01-12T02:00:01.484Z,3.59
2019-01-12T02:02:30.487Z,3.56
2019-01-12T02:04:58.844Z,3.57
2019-01-12T02:07:26.831Z,3.58
2019-01-12T02:09:55.122Z,3.60
2019-01-12T02:12:23.140Z,3.64
2019-01-12T02:14:51.152Z,3.66
2019-01-12T02:17:19.142Z,3.65
2019-01-12T02:19:47.177Z,3.64
2019-01-12T02:22:15.192Z,3.61
2019-01-12T02:24:43.205Z,3.61
2019-01-12T02:27:11.253Z,3.62
2019-01-12T02:29:39.280Z,3.61
2019-01-12T02:32:07.246Z,3.63
2019-01-12T02:34:35.243Z,3.61
2019-01-12T02:37:03.355Z,3.61
2019-01-12T02:39:31.749Z,3.59
2019-01-12T02:41:59.768Z,3.62
2019-01-12T02:44:27.754Z,3.60
2019-01-12T02:46:55.768Z,3.58
2019-01-12T02:49:23.789Z,3.59
2019-01-12T02:51:51.847Z,3.59
2019-01-12T02:54:21.323Z,3.61
2019-01-12T02:56:49.688Z,3.63
2019-01-12T02:59:17.756Z,3.64
2019-01-12T03:01:45.753Z,3.65
2019-01-12T03:04:13.767Z,3.65
2019-01-12T03:06:41.805Z,3.66
2019-01-12T03:09:09.819Z,3.68
2019-01-12T03:11:37.846Z,3.70
2019-01-12T03:14:06.173Z,3.70
2019-01-12T03:16:34.182Z,3.71
2019-01-12T03:19:02.196Z,3.71
2019-01-12T03:21:30.262Z,3.74
2019-01-12T03:23:58.541Z,3.75
2019-01-12T03:26:26.537Z,3.75
2019-01-12T03:28:54.519Z,3.74
2019-01-12T03:31:22.553Z,3.75
2019-01-12T03:33:50.772Z,3.76
2019-01-12T03:36:18.775Z,3.79
2019-01-12T03:38:46.778Z,3.81
2019-01-12T03:41:14.790Z,3.82
2019-01-12T03:43:43.159Z,3.84
2019-01-12T03:46:11.251Z,3.84
2019-01-12T03:48:39.586Z,3.83
2019-01-12T03:51:08.054Z,3.83
2019-01-12T03:53:36.066Z,3.81
2019-01-12T03:56:04.412Z,3.81
2019-01-12T03:58:32.411Z,3.81
2019-01-12T04:01:00.719Z,3.80
2019-01-12T04:03:28.745Z,3.79
2019-01-12T04:05:56.780Z,3.79
2019-01-12T04:08:24.770Z,3.79
2019-01-12T04:10:52.829Z,3.80
2019-01-12T04:13:20.804Z,3.80
2019-01-12T04:15:48.805Z,3.80
2019-01-12T04:18:16.819Z,3.81
2019-01-12T04:20:45.444Z,3.81
2019-01-12T04:23:13.479Z,3.83
2019-01-12T04:25:41.603Z,3.80
2019-01-12T04:28:09.587Z,3.78
2019-01-12T04:30:37.618Z,3.79
2019-01-12T04:33:05.765Z,3.82
2019-01-12T04:35:33.928Z,3.82
2019-01-12T04:38:01.937Z,3.84
2019-01-12T04:40:29.952Z,3.87
2019-01-12T04:42:57.959Z,3.86
2019-01-12T04:45:26.007Z,3.86
2019-01-12T04:47:54.291Z,3.89
2019-01-12T04:50:22.321Z,3.89
2019-01-12T04:52:50.947Z,3.90
2019-01-12T04:55:18.992Z,3.92
2019-01-12T04:57:47.025Z,3.92
2019-01-12T05:00:18.554Z,3.94
2019-01-12T05:02:47.249Z,3.94
2019-01-12T05:05:16.426Z,3.96
2019-01-12T05:07:44.810Z,3.98
2019-01-12T05:10:13.763Z,3.98
2019-01-12T05:12:41.796Z,3.99
2019-01-12T05:15:11.482Z,3.98
2019-01-12T05:17:39.514Z,3.97
2019-01-12T05:20:13.002Z,4.02
2019-01-12T05:22:41.041Z,4.04
2019-01-12T05:25:09.067Z,4.06
2019-01-12T05:27:37.470Z,4.10
2019-01-12T05:30:07.028Z,4.12
2019-01-12T05:32:35.005Z,4.14
2019-01-12T05:35:04.047Z,4.15
2019-01-12T05:37:32.051Z,4.16
2019-01-12T05:40:00.103Z,4.18
2019-01-12T05:42:28.377Z,4.18
2019-01-12T05:44:56.741Z,4.18
2019-01-12T05:47:24.771Z,4.17
2019-01-12T05:49:54.219Z,4.15
2019-01-12T05:52:22.679Z,4.14
2019-01-12T05:54:50.851Z,4.16
2019-01-12T05:57:18.925Z,4.16
2019-01-12T05:59:46.945Z,4.17
2019-01-12T06:02:14.964Z,4.16
2019-01-12T06:04:43.387Z,4.14
2019-01-12T06:07:11.512Z,4.13
2019-01-12T06:09:39.625Z,4.10
2019-01-12T06:12:07.631Z,4.13
2019-01-12T06:14:35.636Z,4.15
2019-01-12T06:17:03.661Z,4.16
2019-01-12T06:19:31.687Z,4.15
2019-01-12T06:21:59.691Z,4.15
2019-01-12T06:24:27.704Z,4.16
2019-01-12T06:26:55.792Z,4.18
2019-01-12T06:29:23.763Z,4.18
2019-01-12T06:31:51.809Z,4.18
2019-01-12T06:34:19.812Z,4.19
2019-01-12T06:36:48.028Z,4.22
2019-01-12T06:39:16.023Z,4.26
2019-01-12T06:41:44.040Z,4.28
2019-01-12T06:44:12.104Z,4.29
2019-01-12T06:46:40.166Z,4.29
2019-01-12T06:49:08.233Z,4.32
2019-01-12T06:51:37.261Z,4.34
2019-01-12T06:54:05.253Z,4.36
2019-01-12T06:56:33.254Z,4.36
2019-01-12T06:59:01.348Z,4.35
2019-01-12T07:01:29.365Z,4.33
2019-01-12T07:03:57.366Z,4.32
2019-01-12T07:06:25.347Z,4.31
2019-01-12T07:08:53.682Z,4.31
2019-01-12T07:11:21.702Z,4.33
2019-01-12T07:13:49.714Z,4.34
2019-01-12T07:16:17.680Z,4.36
2019-01-12T07:18:46.183Z,4.39
2019-01-12T07:21:14.266Z,4.39
2019-01-12T07:23:42.263Z,4.41
2019-01-12T07:26:10.257Z,4.42
2019-01-12T07:28:38.250Z,4.43
2019-01-12T07:31:06.263Z,4.43
2019-01-12T07:33:34.256Z,4.44
2019-01-12T07:36:02.233Z,4.42
2019-01-12T07:38:30.234Z,4.42
2019-01-12T07:40:58.250Z,4.42
2019-01-12T07:43:27.367Z,4.44
2019-01-12T07:45:55.346Z,4.44
2019-01-12T07:48:23.730Z,4.42
2019-01-12T07:50:51.761Z,4.41
2019-01-12T07:53:19.963Z,4.43
2019-01-12T07:55:48.038Z,4.43
2019-01-12T07:58:16.358Z,4.44
2019-01-12T08:00:44.366Z,4.45
2019-01-12T08:03:12.377Z,4.45
2019-01-12T08:05:40.396Z,4.46
2019-01-12T08:08:08.415Z,4.46
2019-01-12T08:10:36.399Z,4.48
2019-01-12T08:13:04.413Z,4.49
2019-01-12T08:15:32.822Z,4.51
2019-01-12T08:18:00.863Z,4.53
2019-01-12T08:20:28.856Z,4.52
2019-01-12T08:22:56.860Z,4.54
2019-01-12T08:25:25.535Z,4.55
2019-01-12T08:27:53.632Z,4.56
2019-01-12T08:30:21.629Z,4.59
2019-01-12T08:32:50.070Z,4.60
2019-01-12T08:35:18.258Z,4.61
2019-01-12T08:37:46.306Z,4.65
2019-01-12T08:40:14.390Z,4.65
2019-01-12T08:42:42.413Z,4.64
2019-01-12T08:45:10.818Z,4.64
2019-01-12T08:47:38.824Z,4.65
2019-01-12T08:50:12.229Z,4.66
2019-01-12T08:52:40.295Z,4.67
2019-01-12T08:55:09.172Z,4.64
2019-01-12T08:57:37.184Z,4.63
2019-01-12T09:00:09.948Z,4.65
2019-01-12T09:02:37.983Z,4.64
2019-01-12T09:05:06.144Z,4.66
2019-01-12T09:07:34.237Z,4.68
2019-01-12T09:10:03.214Z,4.70
2019-01-12T09:12:32.360Z,4.71
2019-01-12T09:15:00.621Z,4.70
2019-01-12T09:17:29.198Z,4.69
2019-01-12T09:19:57.584Z,4.69
2019-01-12T09:22:25.532Z,4.69
2019-01-12T09:24:53.620Z,4.68
2019-01-12T09:27:21.614Z,4.68
2019-01-12T09:29:49.635Z,4.67
2019-01-12T09:32:17.652Z,4.69
2019-01-12T09:34:45.685Z,4.74
2019-01-12T09:37:13.698Z,4.76
2019-01-12T09:39:41.710Z,4.80
2019-01-12T09:42:09.694Z,4.83
2019-01-12T09:44:37.711Z,4.88
2019-01-12T09:47:05.682Z,4.92
2019-01-12T09:49:33.717Z,4.98
2019-01-12T09:52:01.759Z,4.99
2019-01-12T09:54:29.783Z,4.98
2019-01-12T09:56:57.801Z,5.00
2019-01-12T09:59:27.055Z,5.01
2019-01-12T10:01:55.118Z,5.04
2019-01-12T10:04:23.107Z,5.01
2019-01-12T10:06:51.142Z,5.01
2019-01-12T10:09:19.126Z,5.02
2019-01-12T10:11:47.179Z,5.01
2019-01-12T10:14:15.180Z,5.02
2019-01-12T10:16:43.225Z,5.05
2019-01-12T10:19:11.215Z,5.06
2019-01-12T10:21:39.303Z,5.10
2019-01-12T10:24:07.427Z,5.15
2019-01-12T10:26:36.029Z,5.19
2019-01-12T10:29:04.159Z,5.20
2019-01-12T10:31:32.170Z,5.20
2019-01-12T10:34:00.277Z,5.21
2019-01-12T10:36:28.343Z,5.26
2019-01-12T10:38:58.861Z,5.29
2019-01-12T10:41:26.857Z,5.32
2019-01-12T10:43:54.937Z,5.36
2019-01-12T10:46:22.966Z,5.38
2019-01-12T10:48:51.016Z,5.41
2019-01-12T10:51:19.737Z,5.41
2019-01-12T10:53:47.774Z,5.43
2019-01-12T10:56:16.099Z,5.47
2019-01-12T10:58:44.132Z,5.50
2019-01-12T11:01:12.150Z,5.52
2019-01-12T11:03:40.179Z,5.53
2019-01-12T11:06:08.232Z,5.55
2019-01-12T11:08:36.326Z,5.57
2019-01-12T11:11:04.434Z,5.59
2019-01-12T11:13:32.787Z,5.62
2019-01-12T11:16:00.788Z,5.68
2019-01-12T11:18:28.762Z,5.71
2019-01-12T11:20:56.835Z,5.70
2019-01-12T11:23:24.804Z,5.70
2019-01-12T11:25:52.885Z,5.70
2019-01-12T11:28:20.844Z,5.70
2019-01-12T11:30:50.039Z,5.72
2019-01-12T11:33:18.054Z,5.73
2019-01-12T11:35:46.078Z,5.79
2019-01-12T11:38:14.188Z,5.82
2019-01-12T11:40:42.213Z,5.86
2019-01-12T11:43:10.251Z,5.87
2019-01-12T11:45:38.302Z,5.89
2019-01-12T11:48:06.299Z,5.89
2019-01-12T11:50:34.388Z,5.91
2019-01-12T11:53:02.965Z,5.94
2019-01-12T11:55:31.064Z,5.97
2019-01-12T11:57:59.078Z,5.98
2019-01-12T12:00:30.476Z,5.99
2019-01-12T12:02:59.366Z,5.98
2019-01-12T12:05:27.446Z,5.99
2019-01-12T12:07:56.998Z,6.02
2019-01-12T12:10:25.027Z,6.04
2019-01-12T12:12:53.502Z,6.05
2019-01-12T12:15:22.483Z,6.09
2019-01-12T12:17:50.846Z,6.14
2019-01-12T12:20:25.038Z,6.16
2019-01-12T12:22:53.153Z,6.17
2019-01-12T12:25:21.707Z,6.22
2019-01-12T12:27:49.781Z,6.25
2019-01-12T12:30:26.677Z,6.30
2019-01-12T12:32:54.670Z,6.35
2019-01-12T12:35:22.739Z,6.40
2019-01-12T12:37:50.832Z,6.42
2019-01-12T12:40:21.601Z,6.46
2019-01-12T12:42:50.222Z,6.47
2019-01-12T12:45:22.285Z,6.45
2019-01-12T12:47:50.375Z,6.41
2019-01-12T12:50:18.532Z,6.41
2019-01-12T12:52:47.551Z,6.38
2019-01-12T12:55:15.901Z,6.36
2019-01-12T12:57:44.071Z,6.34
2019-01-12T13:00:16.575Z,6.33
2019-01-12T13:02:44.644Z,6.35
2019-01-12T13:05:12.745Z,6.34
2019-01-12T13:07:40.859Z,6.34
2019-01-12T13:10:14.432Z,6.34
2019-01-12T13:12:42.520Z,6.35
2019-01-12T13:15:11.755Z,6.36
2019-01-12T13:17:39.929Z,6.38
2019-01-12T13:20:10.654Z,6.40
2019-01-12T13:22:38.989Z,6.36
2019-01-12T13:25:07.583Z,6.35
2019-01-12T13:27:39.846Z,6.35
2019-01-12T13:30:11.332Z,6.33
2019-01-12T13:32:39.609Z,6.32
2019-01-12T13:35:07.763Z,6.29
2019-01-12T13:37:35.928Z,6.29
2019-01-12T13:40:06.865Z,6.29
2019-01-12T13:42:34.979Z,6.27
2019-01-12T13:45:06.511Z,6.25
2019-01-12T13:47:35.020Z,6.22
2019-01-12T13:50:05.529Z,6.18
2019-01-12T13:52:34.315Z,6.16
2019-01-12T13:55:03.029Z,6.13
2019-01-12T13:57:31.409Z,6.12
2019-01-12T13:59:59.880Z,6.11
2019-01-12T14:02:27.990Z,6.09
2019-01-12T14:04:56.106Z,6.11
2019-01-12T14:07:24.242Z,6.13
2019-01-12T14:09:52.343Z,6.11
2019-01-12T14:12:20.430Z,6.12
2019-01-12T14:14:48.445Z,6.15
2019-01-12T14:17:16.571Z,6.13
2019-01-12T14:19:44.640Z,6.15
2019-01-12T14:22:12.769Z,6.16
2019-01-12T14:24:41.019Z,6.18
2019-01-12T14:27:09.332Z,6.17
2019-01-12T14:29:37.467Z,6.14
2019-01-12T14:32:05.909Z,6.13
2019-01-12T14:34:33.899Z,6.16
2019-01-12T14:37:02.021Z,6.18
2019-01-12T14:39:30.016Z,6.20
2019-01-12T14:41:58.463Z,6.20
2019-01-12T14:44:26.781Z,6.21
2019-01-12T14:46:54.919Z,6.22
2019-01-12T14:49:23.092Z,6.23
2019-01-12T14:51:51.522Z,6.22
2019-01-12T14:54:19.608Z,6.22
2019-01-12T14:56:47.865Z,6.23
2019-01-12T14:59:16.134Z,6.23
2019-01-12T15:01:44.510Z,6.26
2019-01-12T15:04:12.833Z,6.26
2019-01-12T15:06:41.246Z,6.26
2019-01-12T15:09:09.314Z,6.26
2019-01-12T15:11:37.421Z,6.26
2019-01-12T15:14:05.627Z,6.26
2019-01-12T15:16:33.807Z,6.29
2019-01-12T15:19:01.951Z,6.28
2019-01-12T15:21:30.376Z,6.28
2019-01-12T15:23:58.441Z,6.29
2019-01-12T15:26:26.442Z,6.31
2019-01-12T15:28:54.525Z,6.30
2019-01-12T15:31:22.609Z,6.30
2019-01-12T15:33:50.632Z,6.29
2019-01-12T15:36:19.271Z,6.28
2019-01-12T15:38:47.377Z,6.28
2019-01-12T15:41:15.349Z,6.29
2019-01-12T15:43:44.274Z,6.30
2019-01-12T15:46:12.323Z,6.29
2019-01-12T15:48:40.396Z,6.29
2019-01-12T15:51:08.383Z,6.29
2019-01-12T15:53:36.427Z,6.28
2019-01-12T15:56:04.559Z,6.30
2019-01-12T15:58:32.658Z,6.32
2019-01-12T16:01:00.755Z,6.32
2019-01-12T16:03:28.844Z,6.28
2019-01-12T16:05:56.832Z,6.29
2019-01-12T16:08:25.276Z,6.31
2019-01-12T16:10:53.307Z,6.33
2019-01-12T16:13:21.400Z,6.34
2019-01-12T16:15:49.403Z,6.34
2019-01-12T16:18:17.592Z,6.30
2019-01-12T16:20:45.608Z,6.28
2019-01-12T16:23:13.815Z,6.26
2019-01-12T16:25:41.883Z,6.24
2019-01-12T16:28:09.959Z,6.22
2019-01-12T16:30:38.240Z,6.23
2019-01-12T16:33:06.277Z,6.22
2019-01-12T16:35:34.282Z,6.23
2019-01-12T16:38:02.503Z,6.23
2019-01-12T16:40:30.512Z,6.23
2019-01-12T16:42:59.582Z,6.24
2019-01-12T16:45:27.647Z,6.23
2019-01-12T16:47:56.007Z,6.22
2019-01-12T16:50:24.061Z,6.21
2019-01-12T16:52:52.666Z,6.24
2019-01-12T16:55:20.699Z,6.26
2019-01-12T16:57:48.735Z,6.26
2019-01-12T17:00:22.758Z,6.25
2019-01-12T17:02:51.391Z,6.24
2019-01-12T17:05:19.523Z,6.26
2019-01-12T17:07:47.554Z,6.27
2019-01-12T17:10:17.578Z,6.29
2019-01-12T17:12:45.698Z,6.28
2019-01-12T17:15:16.306Z,6.29
2019-01-12T17:17:44.578Z,6.29
2019-01-12T17:20:16.687Z,6.28
2019-01-12T17:22:44.883Z,6.28
2019-01-12T17:25:13.357Z,6.29
2019-01-12T17:27:42.407Z,6.30
2019-01-12T17:30:14.758Z,6.30
2019-01-12T17:32:42.771Z,6.31
2019-01-12T17:35:12.182Z,6.33
2019-01-12T17:37:40.463Z,6.35
2019-01-12T17:40:10.288Z,6.35
2019-01-12T17:42:39.390Z,6.36
2019-01-12T17:56:06.663Z,6.37
2019-01-12T17:58:34.900Z,6.36
2019-01-12T18:01:04.253Z,6.34
2019-01-12T18:03:32.167Z,6.35
2019-01-12T18:05:59.958Z,6.37
2019-01-12T18:08:27.770Z,6.39
2019-01-12T18:10:55.686Z,6.41
2019-01-12T18:13:24.208Z,6.41
2019-01-12T18:15:52.028Z,6.41
2019-01-12T18:18:19.834Z,6.42
2019-01-12T18:20:48.093Z,6.44
2019-01-12T18:23:16.217Z,6.46
2019-01-12T18:25:44.685Z,6.46
2019-01-12T18:28:13.453Z,6.45
2019-01-12T18:31:20.551Z,6.44
2019-01-12T18:33:50.215Z,6.44
2019-01-12T18:36:18.449Z,6.41
2019-01-12T18:38:46.595Z,6.39
2019-01-12T18:41:14.825Z,6.37
2019-01-12T18:43:42.965Z,6.40
2019-01-12T18:46:12.163Z,6.37
2019-01-12T18:48:40.661Z,6.37
2019-01-12T18:51:09.888Z,6.38
2019-01-12T18:53:37.869Z,6.38
2019-01-12T18:56:06.041Z,6.36
2019-01-12T18:58:34.367Z,6.35
2019-01-12T19:01:09.703Z,6.37
2019-01-12T19:03:38.373Z,6.36
2019-01-12T19:06:06.798Z,6.36
2019-01-12T19:08:41.168Z,6.37
2019-01-12T19:11:09.289Z,6.38
2019-01-12T19:13:38.319Z,6.36
2019-01-12T19:16:06.407Z,6.37
2019-01-12T19:18:34.464Z,6.34
2019-01-12T19:21:03.001Z,6.36
2019-01-12T19:23:31.100Z,6.34
2019-01-12T19:25:59.221Z,6.34
2019-01-12T19:28:27.630Z,6.33
2019-01-12T19:30:58.999Z,6.34
2019-01-12T19:33:31.930Z,6.32
2019-01-12T19:36:00.092Z,6.31
2019-01-12T19:38:28.269Z,6.30
2019-01-12T19:40:56.767Z,6.30
2019-01-12T19:43:36.056Z,6.31
2019-01-12T19:46:04.285Z,6.33
2019-01-12T19:48:32.352Z,6.33
2019-01-12T19:51:00.703Z,6.31
2019-01-12T19:53:28.752Z,6.31
2019-01-12T19:55:56.927Z,6.30
2019-01-12T19:58:26.058Z,6.30
2019-01-12T20:00:58.808Z,6.31
2019-01-12T20:03:28.483Z,6.29
2019-01-12T20:05:56.548Z,6.31
2019-01-12T20:08:24.585Z,6.32
2019-01-12T20:10:53.278Z,6.33
2019-01-12T20:13:23.075Z,6.35
2019-01-12T20:15:51.265Z,6.36
2019-01-12T20:18:24.862Z,6.37
2019-01-12T20:20:54.654Z,6.36
2019-01-12T20:23:23.792Z,6.39
2019-01-12T20:25:51.910Z,6.40
2019-01-12T20:28:21.254Z,6.38
2019-01-12T20:32:08.550Z,6.41
2019-01-12T20:35:17.961Z,6.39
2019-01-12T20:38:42.811Z,6.39
2019-01-12T20:41:30.323Z,6.37
2019-01-12T20:45:03.560Z,6.38
2019-01-12T20:48:10.050Z,6.37
2019-01-12T20:51:16.525Z,6.31
2019-01-12T20:54:54.738Z,6.33
2019-01-12T20:58:25.472Z,6.33
2019-01-12T21:02:04.931Z,6.33
2019-01-12T21:05:47.675Z,6.33
2019-01-12T21:09:11.567Z,6.35
2019-01-12T21:12:43.702Z,6.33
2019-01-12T21:15:41.655Z,6.34
2019-01-12T21:18:09.740Z,6.35
2019-01-12T21:20:37.797Z,6.32
2019-01-12T21:23:06.147Z,6.33
2019-01-12T21:25:34.269Z,6.36
2019-01-12T21:28:02.438Z,6.37
2019-01-12T21:30:30.475Z,6.39
2019-01-12T21:33:05.605Z,6.38
2019-01-12T21:35:40.942Z,6.39
2019-01-12T21:38:08.971Z,6.42
2019-01-12T21:40:37.064Z,6.43
2019-01-12T21:43:05.089Z,6.44
2019-01-12T21:45:33.421Z,6.43
2019-01-12T21:48:01.520Z,6.43
2019-01-12T21:50:29.648Z,6.42
2019-01-12T21:52:58.328Z,6.44
2019-01-12T21:55:26.306Z,6.44
2019-01-12T21:57:54.376Z,6.46
2019-01-12T22:00:22.373Z,6.45
2019-01-12T22:02:50.488Z,6.44
2019-01-12T22:05:18.535Z,6.45
2019-01-12T22:07:46.560Z,6.44
2019-01-12T22:10:19.083Z,6.44
2019-01-12T22:12:45.775Z,6.43
2019-01-12T22:15:14.999Z,6.45
2019-01-12T22:17:44.327Z,6.45
2019-01-12T22:20:14.625Z,6.44
2019-01-12T22:22:43.131Z,6.44
2019-01-12T22:25:11.449Z,6.43
2019-01-12T22:27:39.542Z,6.47
2019-01-12T22:30:12.802Z,6.49
2019-01-12T22:32:40.896Z,6.49
2019-01-12T22:35:09.128Z,6.48
2019-01-12T22:37:37.166Z,6.49
2019-01-12T22:40:11.763Z,6.49
2019-01-12T22:42:39.883Z,6.48
2019-01-12T22:45:07.901Z,6.50
2019-01-12T22:47:36.178Z,6.50
2019-01-12T22:50:06.120Z,6.49
2019-01-12T22:52:34.209Z,6.48
2019-01-12T22:55:04.252Z,6.48
2019-01-12T22:57:32.308Z,6.48
2019-01-12T23:00:00.333Z,6.52
2019-01-12T23:02:28.998Z,6.50
2019-01-12T23:04:57.707Z,6.53
2019-01-12T23:07:25.791Z,6.55
2019-01-12T23:09:54.080Z,6.55
2019-01-12T23:12:22.223Z,6.56
2019-01-12T23:14:50.258Z,6.54
2019-01-12T23:17:18.257Z,6.51
2019-01-12T23:19:46.261Z,6.52
2019-01-12T23:22:14.326Z,6.50
2019-01-12T23:24:42.651Z,6.53
2019-01-12T23:27:10.656Z,6.53
2019-01-12T23:29:38.781Z,6.51
2019-01-12T23:32:06.799Z,6.53
2019-01-12T23:34:34.856Z,6.53
2019-01-12T23:37:03.155Z,6.54
2019-01-12T23:39:32.234Z,6.53
2019-01-12T23:42:00.230Z,6.52
2019-01-12T23:44:28.282Z,6.52
2019-01-12T23:46:57.202Z,6.53
2019-01-12T23:49:26.322Z,6.53
2019-01-12T23:51:54.362Z,6.55
2019-01-12T23:54:22.766Z,6.56
2019-01-12T23:56:50.761Z,6.55
2019-01-12T23:59:18.885Z,6.55
